createdAt,value
2023-03-02T00:01:32.214Z,94873.44
2023-03-02T00:04:03.581Z,94870.72
2023-03-02T00:06:33.195Z,94869.88
2023-03-02T00:09:02.863Z,94864.34
2023-03-02T00:11:31.839Z,94875.16
2023-03-02T00:14:01.109Z,94862.00
2023-03-02T00:16:29.142Z,94866.44
2023-03-02T00:18:57.659Z,94878.72
2023-03-02T00:21:25.635Z,94876.25
2023-03-02T00:23:54.019Z,94885.78
2023-03-02T00:26:22.058Z,94883.00
2023-03-02T00:28:50.156Z,94883.00
2023-03-02T00:31:19.500Z,94882.28
2023-03-02T00:33:47.467Z,94884.84
2023-03-02T00:36:19.170Z,94891.13
2023-03-02T00:38:47.129Z,94888.22
2023-03-02T00:41:16.346Z,94875.03
2023-03-02T00:43:44.606Z,94873.34
2023-03-02T00:46:13.212Z,94878.28
2023-03-02T00:48:43.174Z,94884.13
2023-03-02T00:51:11.779Z,94883.75
2023-03-02T00:53:40.075Z,94881.41
2023-03-02T00:56:08.969Z,94889.09
2023-03-02T00:58:40.520Z,94874.28
2023-03-02T01:01:11.668Z,94881.47
2023-03-02T01:03:45.628Z,94883.25
2023-03-02T01:06:19.777Z,94885.47
2023-03-02T01:08:48.146Z,94885.38
2023-03-02T01:11:18.914Z,94888.78
2023-03-02T01:13:47.648Z,94881.75
2023-03-02T01:16:16.273Z,94873.31
2023-03-02T01:18:45.646Z,94874.50
2023-03-02T01:21:15.956Z,94872.09
2023-03-02T01:23:43.860Z,94868.53
2023-03-02T01:26:11.838Z,94876.03
2023-03-02T01:28:39.777Z,94864.50
2023-03-02T01:31:07.730Z,94873.28
2023-03-02T01:33:35.689Z,94873.16
2023-03-02T01:36:05.448Z,94872.69
2023-03-02T01:38:33.447Z,94873.22
2023-03-02T01:41:01.414Z,94869.28
2023-03-02T01:43:30.344Z,94872.84
2023-03-02T01:46:02.957Z,94875.28
2023-03-02T01:48:58.281Z,94864.97
2023-03-02T01:51:46.953Z,94862.81
2023-03-02T01:54:23.164Z,94866.19
2023-03-02T01:56:59.696Z,94866.56
2023-03-02T01:59:29.493Z,94864.59
2023-03-02T02:02:01.322Z,94865.56
2023-03-02T02:04:32.140Z,94863.78
2023-03-02T02:07:04.496Z,94864.81
2023-03-02T02:09:36.452Z,94860.94
2023-03-02T02:12:05.882Z,94864.13
2023-03-02T02:14:35.096Z,94861.34
2023-03-02T02:17:03.428Z,94859.31
2023-03-02T02:19:44.348Z,94858.63
2023-03-02T02:22:17.588Z,94857.16
2023-03-02T02:24:49.793Z,94857.81
2023-03-02T02:27:19.825Z,94858.44
2023-03-02T02:29:50.837Z,94851.91
2023-03-02T02:32:22.865Z,94852.44
2023-03-02T02:34:54.824Z,94851.47
2023-03-02T02:37:27.334Z,94855.00
2023-03-02T02:39:57.030Z,94857.97
2023-03-02T02:42:30.465Z,94853.59
2023-03-02T02:45:00.691Z,94857.94
2023-03-02T02:47:29.810Z,94871.66
2023-03-02T02:49:58.419Z,94867.13
2023-03-02T02:52:30.050Z,94872.78
2023-03-02T02:54:59.992Z,94863.16
2023-03-02T02:57:31.704Z,94866.16
2023-03-02T03:00:01.419Z,94862.25
2023-03-02T03:02:46.436Z,94865.88
2023-03-02T03:05:16.161Z,94865.69
2023-03-02T03:07:45.182Z,94862.25
2023-03-02T03:10:18.786Z,94861.81
2023-03-02T03:12:48.775Z,94864.19
2023-03-02T03:15:17.618Z,94872.22
2023-03-02T03:17:49.666Z,94877.72
2023-03-02T03:20:18.446Z,94870.97
2023-03-02T03:22:46.681Z,94879.44
2023-03-02T03:25:15.752Z,94877.94
2023-03-02T03:27:48.183Z,94869.72
2023-03-02T03:30:17.238Z,94868.13
2023-03-02T03:32:45.843Z,94874.16
2023-03-02T03:35:16.255Z,94868.66
2023-03-02T03:37:45.798Z,94868.91
2023-03-02T03:40:16.021Z,94870.34
2023-03-02T03:42:45.893Z,94863.97
2023-03-02T03:45:15.730Z,94871.47
2023-03-02T03:47:44.937Z,94877.50
2023-03-02T03:50:13.289Z,94868.75
2023-03-02T03:52:41.944Z,94868.41
2023-03-02T03:55:19.317Z,94863.22
2023-03-02T03:57:49.432Z,94870.13
2023-03-02T04:00:20.047Z,94873.06
2023-03-02T04:02:53.653Z,94868.75
2023-03-02T04:05:22.042Z,94874.53
2023-03-02T04:07:53.165Z,94873.56
2023-03-02T04:10:22.454Z,94876.13
2023-03-02T04:12:52.885Z,94880.25
2023-03-02T04:15:22.413Z,94875.88
2023-03-02T04:17:52.196Z,94872.69
2023-03-02T04:20:23.368Z,94882.22
2023-03-02T04:22:55.275Z,94879.81
2023-03-02T04:25:25.786Z,94881.06
2023-03-02T04:27:57.812Z,94877.91
2023-03-02T04:30:33.211Z,94884.63
2023-03-02T04:33:01.933Z,94887.19
2023-03-02T04:35:30.933Z,94891.75
2023-03-02T04:38:00.564Z,94892.97
2023-03-02T04:40:28.773Z,94892.97
2023-03-02T04:42:56.666Z,94889.41
2023-03-02T04:45:24.577Z,94886.22
2023-03-02T04:47:53.879Z,94882.66
2023-03-02T04:50:21.906Z,94877.63
2023-03-02T04:52:50.237Z,94870.31
2023-03-02T04:55:22.362Z,94877.84
2023-03-02T04:57:50.931Z,94881.06
2023-03-02T05:00:21.812Z,94882.06
2023-03-02T05:02:49.871Z,94884.84
2023-03-02T05:05:22.004Z,94878.06
2023-03-02T05:07:50.152Z,94887.03
2023-03-02T05:10:19.450Z,94887.13
2023-03-02T05:12:58.033Z,94883.38
2023-03-02T05:15:28.406Z,94893.56
2023-03-02T05:17:56.367Z,94896.38
2023-03-02T05:20:30.496Z,94893.28
2023-03-02T05:23:01.409Z,94901.19
2023-03-02T05:25:31.824Z,94894.06
2023-03-02T05:28:00.123Z,94891.69
2023-03-02T05:30:28.344Z,94896.66
2023-03-02T05:32:56.413Z,94891.31
2023-03-02T05:35:26.126Z,94900.47
2023-03-02T05:37:54.064Z,94890.50
2023-03-02T05:40:22.489Z,94897.25
2023-03-02T05:42:50.729Z,94897.25
2023-03-02T05:45:21.636Z,94897.88
2023-03-02T05:47:49.625Z,94907.56
2023-03-02T05:50:17.846Z,94913.81
2023-03-02T05:52:47.208Z,94909.63
2023-03-02T05:55:16.309Z,94910.63
2023-03-02T05:57:44.757Z,94922.16
2023-03-02T06:00:16.599Z,94929.91
2023-03-02T06:02:44.882Z,94928.16
2023-03-02T06:05:15.660Z,94936.69
2023-03-02T06:07:44.255Z,94927.31
2023-03-02T06:10:14.644Z,94935.25
2023-03-02T06:12:42.645Z,94939.25
2023-03-02T06:15:10.986Z,94931.69
2023-03-02T06:17:38.946Z,94932.84
2023-03-02T06:20:10.930Z,94939.97
2023-03-02T06:22:41.213Z,94941.94
2023-03-02T06:25:10.321Z,94938.38
2023-03-02T06:27:40.702Z,94938.72
2023-03-02T06:30:10.803Z,94939.09
2023-03-02T06:32:38.823Z,94940.38
2023-03-02T06:35:08.141Z,94952.00
2023-03-02T06:37:36.651Z,94943.94
2023-03-02T06:40:08.548Z,94944.97
2023-03-02T06:42:36.482Z,94955.88
2023-03-02T06:45:07.431Z,94960.75
2023-03-02T06:47:35.501Z,94958.44
2023-03-02T06:50:03.481Z,94961.25
2023-03-02T06:52:31.418Z,94958.94
2023-03-02T06:54:59.366Z,94967.69
2023-03-02T06:57:33.849Z,94966.69
2023-03-02T07:00:02.676Z,94970.50
2023-03-02T07:02:31.982Z,94971.91
2023-03-02T07:04:59.967Z,94968.91
2023-03-02T07:07:27.946Z,94977.63
2023-03-02T07:09:55.816Z,94981.56
2023-03-02T07:12:23.827Z,94977.63
2023-03-02T07:14:51.741Z,94984.38
2023-03-02T07:17:19.777Z,94989.53
2023-03-02T07:19:49.283Z,94989.19
2023-03-02T07:22:17.250Z,94992.38
2023-03-02T07:24:45.163Z,95001.97
2023-03-02T07:27:13.091Z,95004.63
2023-03-02T07:29:41.058Z,95002.13
2023-03-02T07:32:12.058Z,95005.69
2023-03-02T07:34:40.866Z,95010.84
2023-03-02T07:37:10.175Z,95019.81
2023-03-02T07:39:38.130Z,95015.63
2023-03-02T07:42:08.864Z,95020.19
2023-03-02T07:44:36.841Z,95026.06
2023-03-02T07:47:04.849Z,95031.06
2023-03-02T07:49:32.814Z,95031.72
2023-03-02T07:52:00.744Z,95037.75
2023-03-02T07:54:30.548Z,95036.44
2023-03-02T07:56:58.518Z,95034.09
2023-03-02T07:59:28.361Z,95044.06
2023-03-02T08:01:56.808Z,95042.50
2023-03-02T08:04:25.228Z,95037.78
2023-03-02T08:06:53.277Z,95030.31
2023-03-02T08:09:21.247Z,95034.34
2023-03-02T08:11:50.576Z,95027.59
2023-03-02T08:14:18.508Z,95026.59
2023-03-02T08:16:46.565Z,95032.00
2023-03-02T08:19:14.545Z,95034.78
2023-03-02T08:21:43.210Z,95025.63
2023-03-02T08:24:11.656Z,95032.00
2023-03-02T08:26:39.916Z,95025.75
2023-03-02T08:29:09.339Z,95032.13
2023-03-02T08:31:37.644Z,95022.78
2023-03-02T08:34:05.888Z,95032.97
2023-03-02T08:36:34.079Z,95037.44
2023-03-02T08:39:02.428Z,95036.66
2023-03-02T08:41:30.925Z,95040.47
2023-03-02T08:43:59.004Z,95040.69
2023-03-02T08:46:28.316Z,95033.81
2023-03-02T08:48:56.286Z,95040.41
2023-03-02T08:51:26.382Z,95041.63
2023-03-02T08:53:56.639Z,95033.28
2023-03-02T08:56:26.440Z,95034.50
2023-03-02T08:58:56.114Z,95036.47
2023-03-02T09:01:26.280Z,95035.75
2023-03-02T09:03:55.707Z,95042.50
2023-03-02T09:06:23.604Z,95035.38
2023-03-02T09:08:52.132Z,95033.81
2023-03-02T09:11:20.582Z,95043.34
2023-03-02T09:13:49.174Z,95031.22
2023-03-02T09:16:17.947Z,95036.78
2023-03-02T09:18:45.882Z,95043.94
2023-03-02T09:21:15.396Z,95043.16
2023-03-02T09:23:43.606Z,95047.19
2023-03-02T09:26:11.762Z,95044.72
2023-03-02T09:28:40.092Z,95041.31
2023-03-02T09:31:09.788Z,95041.31
2023-03-02T09:33:38.348Z,95046.69
2023-03-02T09:36:08.003Z,95049.91
2023-03-02T09:38:37.323Z,95043.31
2023-03-02T09:41:36.259Z,95037.88
2023-03-02T09:44:16.040Z,95041.91
2023-03-02T09:46:47.795Z,95039.56
2023-03-02T09:49:29.631Z,95040.38
2023-03-02T09:52:09.277Z,95045.38
2023-03-02T09:54:40.003Z,95036.88
2023-03-02T09:57:20.962Z,95032.69
2023-03-02T09:59:53.206Z,95044.84
2023-03-02T10:02:26.651Z,95043.69
2023-03-02T10:04:56.918Z,95044.53
2023-03-02T10:07:29.379Z,95043.47
2023-03-02T10:10:05.101Z,95045.69
2023-03-02T10:12:48.892Z,95042.94
2023-03-02T10:15:23.742Z,95044.13
2023-03-02T10:18:01.357Z,95054.50
2023-03-02T10:20:34.489Z,95051.31
2023-03-02T10:23:14.593Z,95052.97
2023-03-02T10:25:49.836Z,95053.00
2023-03-02T10:28:21.685Z,95048.97
2023-03-02T10:30:57.805Z,95045.78
2023-03-02T10:33:27.294Z,95046.63
2023-03-02T10:35:55.269Z,95049.47
2023-03-02T10:38:25.915Z,95058.69
2023-03-02T10:41:00.185Z,95057.09
2023-03-02T10:43:34.978Z,95059.69
2023-03-02T10:46:04.709Z,95051.69
2023-03-02T10:48:32.813Z,95059.47
2023-03-02T10:51:01.348Z,95058.31
2023-03-02T10:53:29.451Z,95058.19
2023-03-02T10:55:58.788Z,95056.19
2023-03-02T10:58:30.827Z,95057.00
2023-03-02T11:01:01.059Z,95059.84
2023-03-02T11:03:33.475Z,95053.81
2023-03-02T11:06:13.160Z,95051.44
2023-03-02T11:08:41.108Z,95054.19
2023-03-02T11:11:23.477Z,95062.19
2023-03-02T11:13:51.990Z,95067.41
2023-03-02T11:16:32.184Z,95052.66
2023-03-02T11:19:04.625Z,95058.25
2023-03-02T11:21:36.636Z,95061.44
2023-03-02T11:24:11.652Z,95058.25
2023-03-02T11:26:47.504Z,95054.84
2023-03-02T11:29:30.592Z,95063.38
2023-03-02T11:32:05.148Z,95054.59
2023-03-02T11:34:41.681Z,95054.59
2023-03-02T11:37:18.296Z,95051.28
2023-03-02T11:40:14.517Z,95042.31
2023-03-02T11:42:45.898Z,95050.50
2023-03-02T11:45:21.839Z,95047.91
2023-03-02T11:48:02.142Z,95042.72
2023-03-02T11:50:31.904Z,95030.69
2023-03-02T11:53:03.980Z,95025.47
2023-03-02T11:55:45.727Z,95036.09
2023-03-02T11:58:19.511Z,95035.47
2023-03-02T12:00:49.366Z,95018.69
2023-03-02T12:03:23.238Z,95016.50
2023-03-02T12:06:05.205Z,95015.50
2023-03-02T12:08:39.123Z,95019.88
2023-03-02T12:11:09.673Z,95013.81
2023-03-02T12:13:40.461Z,95016.22
2023-03-02T12:16:21.182Z,95016.63
2023-03-02T12:18:50.023Z,95004.34
2023-03-02T12:21:19.732Z,95008.28
2023-03-02T12:24:01.672Z,95008.22
2023-03-02T12:26:35.454Z,95001.31
2023-03-02T12:29:21.865Z,95002.63
2023-03-02T12:31:52.703Z,94998.94
2023-03-02T12:34:38.275Z,94993.50
2023-03-02T12:37:17.109Z,94994.59
2023-03-02T12:40:19.739Z,94992.53
2023-03-02T12:43:04.437Z,94989.16
2023-03-02T12:45:48.791Z,94993.16
2023-03-02T12:48:30.606Z,94984.66
2023-03-02T12:51:02.171Z,94986.09
2023-03-02T12:53:30.785Z,94991.81
2023-03-02T12:55:58.913Z,94979.47
2023-03-02T12:58:29.206Z,94983.88
2023-03-02T13:01:01.474Z,94984.63
2023-03-02T13:03:31.764Z,94982.94
2023-03-02T13:06:04.592Z,94989.19
2023-03-02T13:08:33.563Z,94976.19
2023-03-02T13:11:03.101Z,94976.66
2023-03-02T13:13:37.933Z,94978.53
2023-03-02T13:16:19.237Z,94975.09
2023-03-02T13:18:49.878Z,94976.81
2023-03-02T13:21:19.985Z,94971.09
2023-03-02T13:23:49.644Z,94976.78
2023-03-02T13:26:29.422Z,94970.88
2023-03-02T13:29:05.300Z,94969.72
2023-03-02T13:31:35.870Z,94972.25
2023-03-02T13:34:03.810Z,94972.66
2023-03-02T13:36:37.455Z,94967.78
2023-03-02T13:39:09.181Z,94962.03
2023-03-02T13:41:40.683Z,94961.44
2023-03-02T13:44:19.797Z,94952.47
2023-03-02T13:46:49.140Z,94953.44
2023-03-02T13:49:27.865Z,94958.78
2023-03-02T13:52:02.198Z,94952.16
2023-03-02T13:54:33.187Z,94951.22
2023-03-02T13:57:03.498Z,94958.41
2023-03-02T13:59:33.121Z,94950.22
2023-03-02T14:02:02.465Z,94948.69
2023-03-02T14:04:30.467Z,94949.66
2023-03-02T14:06:58.466Z,94949.97
2023-03-02T14:09:27.259Z,94942.44
2023-03-02T14:11:57.024Z,94947.41
2023-03-02T14:14:28.106Z,94937.06
2023-03-02T14:16:56.021Z,94931.28
2023-03-02T14:19:25.435Z,94929.25
2023-03-02T14:21:53.360Z,94934.22
2023-03-02T14:24:21.356Z,94933.78
2023-03-02T14:26:51.361Z,94942.63
2023-03-02T14:29:24.452Z,94933.00
2023-03-02T14:31:52.849Z,94932.22
2023-03-02T14:34:20.989Z,94935.03
2023-03-02T14:36:53.483Z,94930.75
2023-03-02T14:39:23.896Z,94936.34
2023-03-02T14:41:54.639Z,94926.44
2023-03-02T14:44:23.578Z,94923.25
2023-03-02T14:46:51.581Z,94923.03
2023-03-02T14:49:19.577Z,94923.81
2023-03-02T14:51:56.896Z,94928.78
2023-03-02T14:54:25.093Z,94926.44
2023-03-02T14:56:53.559Z,94922.81
2023-03-02T14:59:21.495Z,94922.00
2023-03-02T15:01:50.630Z,94920.97
2023-03-02T15:04:18.599Z,94920.06
2023-03-02T15:06:47.469Z,94922.19
2023-03-02T15:09:16.851Z,94919.34
2023-03-02T15:11:44.924Z,94917.91
2023-03-02T15:14:12.854Z,94921.00
2023-03-02T15:16:42.870Z,94918.50
2023-03-02T15:19:10.939Z,94922.53
2023-03-02T15:21:41.553Z,94920.63
2023-03-02T15:24:09.669Z,94918.34
2023-03-02T15:26:41.044Z,94919.94
2023-03-02T15:29:09.490Z,94918.28
2023-03-02T15:31:37.527Z,94914.41
2023-03-02T15:34:05.709Z,94921.47
2023-03-02T15:36:33.987Z,94920.78
2023-03-02T15:39:02.051Z,94926.31
2023-03-02T15:41:29.981Z,94926.53
2023-03-02T15:43:59.254Z,94929.97
2023-03-02T15:46:27.511Z,94930.44
2023-03-02T15:48:55.513Z,94930.19
2023-03-02T15:51:23.975Z,94935.06
2023-03-02T15:53:52.059Z,94937.31
2023-03-02T15:56:20.004Z,94931.66
2023-03-02T15:58:49.013Z,94945.28
2023-03-02T16:01:18.438Z,94947.81
2023-03-02T16:03:46.736Z,94943.19
2023-03-02T16:06:15.827Z,94949.28
2023-03-02T16:08:43.834Z,94943.50
2023-03-02T16:11:12.470Z,94946.72
2023-03-02T16:13:40.534Z,94949.72
2023-03-02T16:16:09.231Z,94948.13
2023-03-02T16:18:38.599Z,94943.94
2023-03-02T16:21:07.053Z,94943.50
2023-03-02T16:23:35.045Z,94951.13
2023-03-02T16:26:09.363Z,94958.34
2023-03-02T16:28:37.564Z,94955.19
2023-03-02T16:31:06.048Z,94959.16
2023-03-02T16:33:34.475Z,94965.16
2023-03-02T16:36:03.786Z,94957.78
2023-03-02T16:38:31.784Z,94970.59
2023-03-02T16:40:59.708Z,94969.56
2023-03-02T16:43:29.141Z,94962.22
2023-03-02T16:45:57.269Z,94963.78
2023-03-02T16:48:25.218Z,94964.97
2023-03-02T16:50:57.561Z,94972.41
2023-03-02T16:53:26.899Z,94976.28
2023-03-02T16:55:54.907Z,94975.13
2023-03-02T16:58:22.826Z,94977.31
2023-03-02T17:00:51.047Z,94975.50
2023-03-02T17:03:19.176Z,94982.31
2023-03-02T17:05:47.189Z,94984.31
2023-03-02T17:08:16.789Z,94985.56
2023-03-02T17:10:46.087Z,94996.19
2023-03-02T17:13:15.617Z,94994.03
2023-03-02T17:15:43.896Z,94995.03
2023-03-02T17:18:12.465Z,94997.34
2023-03-02T17:20:41.024Z,95000.59
2023-03-02T17:23:11.817Z,95005.81
2023-03-02T17:25:40.451Z,95005.84
2023-03-02T17:28:12.496Z,95008.31
2023-03-02T17:30:40.786Z,95012.28
2023-03-02T17:33:09.342Z,95016.28
2023-03-02T17:35:37.837Z,95021.47
2023-03-02T17:38:05.947Z,95023.47
2023-03-02T17:40:34.000Z,95026.31
2023-03-02T17:43:01.947Z,95038.28
2023-03-02T17:45:31.370Z,95035.47
2023-03-02T17:48:00.311Z,95037.13
2023-03-02T17:50:30.385Z,95034.69
2023-03-02T17:52:58.437Z,95043.28
2023-03-02T17:55:26.763Z,95049.06
2023-03-02T17:57:54.834Z,95052.44
2023-03-02T18:00:24.548Z,95054.66
2023-03-02T18:02:54.544Z,95063.50
2023-03-02T18:05:22.621Z,95064.88
2023-03-02T18:07:52.184Z,95068.47
2023-03-02T18:10:20.215Z,95069.66
2023-03-02T18:12:51.671Z,95069.66
2023-03-02T18:15:20.748Z,95061.50
2023-03-02T18:17:48.800Z,95069.47
2023-03-02T18:20:19.222Z,95069.69
2023-03-02T18:22:47.203Z,95075.66
2023-03-02T18:25:15.121Z,95072.25
2023-03-02T18:27:43.117Z,95078.66
2023-03-02T18:30:12.397Z,95075.66
2023-03-02T18:32:40.313Z,95080.25
2023-03-02T18:35:08.883Z,95079.44
2023-03-02T18:37:38.515Z,95087.19
2023-03-02T18:40:07.782Z,95085.81
2023-03-02T18:42:35.756Z,95092.59
2023-03-02T18:45:03.708Z,95098.56
2023-03-02T18:47:34.041Z,95092.97
2023-03-02T18:50:02.380Z,95093.78
2023-03-02T18:52:30.306Z,95098.91
2023-03-02T18:54:59.558Z,95095.50
2023-03-02T18:57:27.512Z,95103.03
2023-03-02T18:59:55.499Z,95104.03
2023-03-02T19:02:23.406Z,95092.47
2023-03-02T19:04:51.350Z,95100.44
2023-03-02T19:07:19.293Z,95103.22
2023-03-02T19:09:47.257Z,95108.75
2023-03-02T19:12:17.758Z,95110.34
2023-03-02T19:14:45.671Z,95108.34
2023-03-02T19:17:13.670Z,95106.69
2023-03-02T19:19:43.738Z,95098.66
2023-03-02T19:22:11.844Z,95111.00
2023-03-02T19:24:40.529Z,95100.38
2023-03-02T19:27:11.094Z,95100.03
2023-03-02T19:29:41.056Z,95115.97
2023-03-02T19:32:10.702Z,95112.78
2023-03-02T19:34:39.421Z,95107.97
2023-03-02T19:37:07.309Z,95109.28
2023-03-02T19:39:35.306Z,95109.41
2023-03-02T19:42:03.303Z,95111.00
2023-03-02T19:44:31.779Z,95110.47
2023-03-02T19:47:01.622Z,95108.50
2023-03-02T19:49:29.518Z,95107.50
2023-03-02T19:51:59.013Z,95100.34
2023-03-02T19:54:27.002Z,95099.84
2023-03-02T19:56:54.915Z,95103.34
2023-03-02T19:59:23.321Z,95114.91
2023-03-02T20:01:52.883Z,95105.16
2023-03-02T20:04:22.277Z,95106.00
2023-03-02T20:06:50.257Z,95108.13
2023-03-02T20:09:19.864Z,95111.09
2023-03-02T20:11:47.904Z,95113.41
2023-03-02T20:14:31.448Z,95114.16
2023-03-02T20:17:01.051Z,95115.66
2023-03-02T20:19:30.432Z,95118.38
2023-03-02T20:21:58.430Z,95129.94
2023-03-02T20:24:26.339Z,95134.06
2023-03-02T20:26:54.311Z,95127.97
2023-03-02T20:29:22.377Z,95135.19
2023-03-02T20:31:50.640Z,95139.44
2023-03-02T20:34:18.637Z,95143.63
2023-03-02T20:36:48.376Z,95146.81
2023-03-02T20:39:19.516Z,95154.34
2023-03-02T20:41:47.842Z,95157.41
2023-03-02T20:44:16.092Z,95160.25
2023-03-02T20:46:47.293Z,95159.38
2023-03-02T20:49:16.529Z,95165.78
2023-03-02T20:51:49.437Z,95167.31
2023-03-02T20:54:18.792Z,95161.22
2023-03-02T20:56:46.799Z,95165.38
2023-03-02T20:59:15.480Z,95169.84
2023-03-02T21:01:44.188Z,95170.75
2023-03-02T21:04:12.593Z,95174.41
2023-03-02T21:06:40.869Z,95181.19
2023-03-02T21:09:10.732Z,95181.19
2023-03-02T21:11:40.935Z,95183.53
2023-03-02T21:14:08.972Z,95183.88
2023-03-02T21:16:40.057Z,95173.53
2023-03-02T21:19:11.083Z,95174.31
2023-03-02T21:21:42.189Z,95175.13
2023-03-02T21:24:11.096Z,95177.09
2023-03-02T21:26:44.283Z,95180.84
2023-03-02T21:29:13.553Z,95183.00
2023-03-02T21:31:42.263Z,95175.88
2023-03-02T21:34:10.267Z,95176.22
2023-03-02T21:36:38.215Z,95167.88
2023-03-02T21:39:07.785Z,95173.84
2023-03-02T21:41:36.778Z,95170.09
2023-03-02T21:44:07.088Z,95173.03
2023-03-02T21:46:37.015Z,95171.25
2023-03-02T21:49:05.569Z,95167.88
2023-03-02T21:51:33.931Z,95169.47
2023-03-02T21:54:03.159Z,95167.88
2023-03-02T21:56:31.127Z,95168.25
2023-03-02T21:58:59.165Z,95160.22
2023-03-02T22:01:29.850Z,95156.66
2023-03-02T22:03:57.884Z,95163.78
2023-03-02T22:06:27.573Z,95163.78
2023-03-02T22:08:56.953Z,95163.78
2023-03-02T22:11:27.580Z,95160.22
2023-03-02T22:13:58.708Z,95167.72
2023-03-02T22:16:30.215Z,95156.53
2023-03-02T22:18:59.901Z,95159.66
2023-03-02T22:21:31.956Z,95154.75
2023-03-02T22:24:14.918Z,95149.81
2023-03-02T22:26:44.478Z,95153.28
2023-03-02T22:29:16.632Z,95155.13
2023-03-02T22:31:48.448Z,95156.38
2023-03-02T22:34:20.538Z,95152.44
2023-03-02T22:36:48.805Z,95158.06
2023-03-02T22:39:23.086Z,95154.06
2023-03-02T22:41:54.794Z,95152.72
2023-03-02T22:44:22.733Z,95147.63
2023-03-02T22:46:52.465Z,95144.81
2023-03-02T22:49:20.461Z,95136.81
2023-03-02T22:51:48.591Z,95135.19
2023-03-02T22:54:23.656Z,95139.94
2023-03-02T22:56:53.972Z,95138.78
2023-03-02T22:59:24.799Z,95144.31
2023-03-02T23:01:58.835Z,95142.25
2023-03-02T23:04:28.305Z,95135.09
2023-03-02T23:07:00.051Z,95144.63
2023-03-02T23:09:29.949Z,95138.59
2023-03-02T23:11:59.937Z,95136.63
2023-03-02T23:14:30.017Z,95133.06
2023-03-02T23:17:09.003Z,95135.97
2023-03-02T23:19:37.001Z,95139.34
2023-03-02T23:22:05.362Z,95137.94
2023-03-02T23:24:33.298Z,95142.53
2023-03-02T23:27:01.413Z,95139.88
2023-03-02T23:29:29.518Z,95145.13
2023-03-02T23:31:57.962Z,95140.41
2023-03-02T23:34:30.992Z,95136.50
2023-03-02T23:36:59.292Z,95138.44
2023-03-02T23:39:27.834Z,95140.06
2023-03-02T23:41:55.868Z,95146.47
2023-03-02T23:44:24.096Z,95142.91
2023-03-02T23:46:52.045Z,95147.16
2023-03-02T23:49:20.192Z,95147.16
2023-03-02T23:51:49.551Z,95142.72
2023-03-02T23:54:17.520Z,95143.09
2023-03-02T23:56:45.741Z,95141.47
2023-03-02T23:59:13.772Z,95143.44
